sensor_id;sensor_type;location;lat;lon;timestamp;pressure;altitude;pressure_sealevel;temperature;humidity
13934;BME280;7039;52.168;9.866;2023-09-19T00:01:33;99647.44;;;17.65;87.55
13934;BME280;7039;52.168;9.866;2023-09-19T00:04:01;99645.50;;;17.58;87.64
13934;BME280;7039;52.168;9.866;2023-09-19T00:06:28;99648.66;;;17.71;87.06
13934;BME280;7039;52.168;9.866;2023-09-19T00:08:57;99647.06;;;17.50;87.64
13934;BME280;7039;52.168;9.866;2023-09-19T00:11:24;99655.38;;;17.65;87.55
13934;BME280;7039;52.168;9.866;2023-09-19T00:13:51;99645.34;;;17.79;86.55
13934;BME280;7039;52.168;9.866;2023-09-19T00:16:17;99647.72;;;17.82;87.37
13934;BME280;7039;52.168;9.866;2023-09-19T00:18:45;99655.22;;;17.57;87.60
13934;BME280;7039;52.168;9.866;2023-09-19T00:21:12;99668.97;;;17.61;87.88
13934;BME280;7039;52.168;9.866;2023-09-19T00:23:40;99667.44;;;17.68;87.02
13934;BME280;7039;52.168;9.866;2023-09-19T00:26:07;99668.97;;;17.61;87.50
13934;BME280;7039;52.168;9.866;2023-09-19T00:28:33;99667.63;;;17.47;87.98
13934;BME280;7039;52.168;9.866;2023-09-19T00:31:00;99669.81;;;17.51;87.79
13934;BME280;7039;52.168;9.866;2023-09-19T00:33:27;99675.50;;;17.37;88.47
13934;BME280;7039;52.168;9.866;2023-09-19T00:35:56;99671.06;;;17.47;87.49
13934;BME280;7039;52.168;9.866;2023-09-19T00:38:24;99671.75;;;17.49;87.68
13934;BME280;7039;52.168;9.866;2023-09-19T00:40:53;99664.28;;;17.45;87.39
13934;BME280;7039;52.168;9.866;2023-09-19T00:43:20;99668.72;;;17.35;87.42
13934;BME280;7039;52.168;9.866;2023-09-19T00:45:50;99663.19;;;17.38;87.32
13934;BME280;7039;52.168;9.866;2023-09-19T00:48:18;99661.09;;;17.31;87.87
13934;BME280;7039;52.168;9.866;2023-09-19T00:50:46;99666.50;;;17.49;87.15
13934;BME280;7039;52.168;9.866;2023-09-19T00:53:17;99668.28;;;17.39;87.34
13934;BME280;7039;52.168;9.866;2023-09-19T00:55:46;99667.75;;;17.45;87.18
13934;BME280;7039;52.168;9.866;2023-09-19T00:58:16;99673.31;;;17.42;86.88
13934;BME280;7039;52.168;9.866;2023-09-19T01:00:43;99672.22;;;17.35;87.05
13934;BME280;7039;52.168;9.866;2023-09-19T01:03:10;99662.19;;;17.39;87.07
13934;BME280;7039;52.168;9.866;2023-09-19T01:05:38;99661.09;;;17.31;87.01
13934;BME280;7039;52.168;9.866;2023-09-19T01:08:05;99667.50;;;17.29;86.93
13934;BME280;7039;52.168;9.866;2023-09-19T01:10:32;99669.00;;;17.31;86.74
13934;BME280;7039;52.168;9.866;2023-09-19T01:13:03;99666.78;;;17.27;86.55
13934;BME280;7039;52.168;9.866;2023-09-19T01:15:40;99681.34;;;17.31;86.41
13934;BME280;7039;52.168;9.866;2023-09-19T01:18:18;99680.94;;;17.26;87.08
13934;BME280;7039;52.168;9.866;2023-09-19T01:20:53;99681.63;;;17.18;87.38
13934;BME280;7039;52.168;9.866;2023-09-19T01:23:28;99682.31;;;17.20;87.59
13934;BME280;7039;52.168;9.866;2023-09-19T01:26:10;99681.22;;;17.42;87.08
13934;BME280;7039;52.168;9.866;2023-09-19T01:28:52;99678.88;;;17.20;86.63
13934;BME280;7039;52.168;9.866;2023-09-19T01:31:22;99690.50;;;17.27;86.00
13934;BME280;7039;52.168;9.866;2023-09-19T01:33:58;99692.72;;;17.41;85.88
13934;BME280;7039;52.168;9.866;2023-09-19T01:36:29;99695.38;;;17.31;84.95
13934;BME280;7039;52.168;9.866;2023-09-19T01:38:59;99705.06;;;17.41;84.60
13934;BME280;7039;52.168;9.866;2023-09-19T01:41:41;99701.31;;;17.43;84.51
13934;BME280;7039;52.168;9.866;2023-09-19T01:44:14;99705.34;;;17.38;84.81
13934;BME280;7039;52.168;9.866;2023-09-19T01:46:44;99708.13;;;17.46;84.30
13934;BME280;7039;52.168;9.866;2023-09-19T01:49:22;99712.97;;;17.50;83.37
13934;BME280;7039;52.168;9.866;2023-09-19T01:51:56;99717.53;;;17.48;83.23
13934;BME280;7039;52.168;9.866;2023-09-19T01:54:27;99723.38;;;17.62;83.39
13934;BME280;7039;52.168;9.866;2023-09-19T01:56:59;99708.78;;;17.58;83.26
13934;BME280;7039;52.168;9.866;2023-09-19T01:59:35;99713.94;;;17.59;82.51
13934;BME280;7039;52.168;9.866;2023-09-19T02:02:06;99717.53;;;17.68;82.43
13934;BME280;7039;52.168;9.866;2023-09-19T02:04:34;99716.16;;;17.54;82.65
13934;BME280;7039;52.168;9.866;2023-09-19T02:07:01;99715.34;;;17.53;82.45
13934;BME280;7039;52.168;9.866;2023-09-19T02:09:31;99720.75;;;17.71;82.14
13934;BME280;7039;52.168;9.866;2023-09-19T02:11:58;99712.72;;;17.53;82.36
13934;BME280;7039;52.168;9.866;2023-09-19T02:14:25;99721.88;;;17.40;82.41
13934;BME280;7039;52.168;9.866;2023-09-19T02:16:52;99732.41;;;17.49;82.36
13934;BME280;7039;52.168;9.866;2023-09-19T02:19:20;99733.09;;;17.51;82.02
13934;BME280;7039;52.168;9.866;2023-09-19T02:21:47;99732.00;;;17.54;81.66
13934;BME280;7039;52.168;9.866;2023-09-19T02:24:14;99741.41;;;17.76;81.22
13934;BME280;7039;52.168;9.866;2023-09-19T02:26:41;99746.16;;;17.63;81.79
13934;BME280;7039;52.168;9.866;2023-09-19T02:29:08;99743.75;;;17.79;81.11
13934;BME280;7039;52.168;9.866;2023-09-19T02:31:38;99751.09;;;17.75;81.23
13934;BME280;7039;52.168;9.866;2023-09-19T02:34:04;99756.41;;;17.66;80.74
13934;BME280;7039;52.168;9.866;2023-09-19T02:36:35;99756.69;;;17.72;81.00
13934;BME280;7039;52.168;9.866;2023-09-19T02:39:02;99770.13;;;17.79;81.06
13934;BME280;7039;52.168;9.866;2023-09-19T02:41:30;99770.00;;;17.81;81.08
13934;BME280;7039;52.168;9.866;2023-09-19T02:43:58;99764.59;;;17.63;80.42
13934;BME280;7039;52.168;9.866;2023-09-19T02:46:25;99756.84;;;17.51;81.34
13934;BME280;7039;52.168;9.866;2023-09-19T02:48:51;99758.78;;;17.49;81.63
13934;BME280;7039;52.168;9.866;2023-09-19T02:51:18;99750.84;;;17.59;81.40
13934;BME280;7039;52.168;9.866;2023-09-19T02:53:47;99752.09;;;17.45;82.06
13934;BME280;7039;52.168;9.866;2023-09-19T02:56:14;99754.59;;;17.37;82.37
13934;BME280;7039;52.168;9.866;2023-09-19T02:58:41;99765.03;;;17.58;81.88
13934;BME280;7039;52.168;9.866;2023-09-19T03:01:08;99766.53;;;17.61;81.68
13934;BME280;7039;52.168;9.866;2023-09-19T03:03:36;99762.53;;;17.47;82.48
13934;BME280;7039;52.168;9.866;2023-09-19T03:06:04;99754.88;;;17.34;82.75
13934;BME280;7039;52.168;9.866;2023-09-19T03:08:33;99763.31;;;17.28;82.16
13934;BME280;7039;52.168;9.866;2023-09-19T03:11:03;99747.22;;;17.11;82.17
13934;BME280;7039;52.168;9.866;2023-09-19T03:13:31;99742.13;;;17.10;82.02
13934;BME280;7039;52.168;9.866;2023-09-19T03:15:57;99748.50;;;17.17;81.86
13934;BME280;7039;52.168;9.866;2023-09-19T03:18:24;99744.59;;;17.11;81.74
13934;BME280;7039;52.168;9.866;2023-09-19T03:20:55;99757.44;;;16.85;82.49
13934;BME280;7039;52.168;9.866;2023-09-19T03:23:21;99752.72;;;16.79;82.46
13934;BME280;7039;52.168;9.866;2023-09-19T03:25:48;99755.44;;;16.78;82.70
13934;BME280;7039;52.168;9.866;2023-09-19T03:28:16;99753.44;;;16.91;82.66
13934;BME280;7039;52.168;9.866;2023-09-19T03:30:43;99761.19;;;16.83;82.44
13934;BME280;7039;52.168;9.866;2023-09-19T03:33:11;99757.44;;;16.85;82.00
13934;BME280;7039;52.168;9.866;2023-09-19T03:35:39;99760.97;;;16.75;82.32
13934;BME280;7039;52.168;9.866;2023-09-19T03:38:06;99765.78;;;17.00;81.54
13934;BME280;7039;52.168;9.866;2023-09-19T03:40:32;99763.94;;;16.81;81.83
13934;BME280;7039;52.168;9.866;2023-09-19T03:43:00;99773.38;;;16.84;81.76
13934;BME280;7039;52.168;9.866;2023-09-19T03:45:28;99744.41;;;16.53;82.75
13934;BME280;7039;52.168;9.866;2023-09-19T03:47:54;99758.56;;;16.62;82.31
13934;BME280;7039;52.168;9.866;2023-09-19T03:50:21;99763.44;;;16.66;82.13
13934;BME280;7039;52.168;9.866;2023-09-19T03:52:48;99767.66;;;16.48;82.65
13934;BME280;7039;52.168;9.866;2023-09-19T03:55:14;99763.19;;;16.39;82.67
13934;BME280;7039;52.168;9.866;2023-09-19T03:57:41;99767.66;;;16.48;82.62
13934;BME280;7039;52.168;9.866;2023-09-19T04:00:08;99769.16;;;16.41;82.43
13934;BME280;7039;52.168;9.866;2023-09-19T04:02:37;99777.38;;;16.47;81.66
13934;BME280;7039;52.168;9.866;2023-09-19T04:05:05;99776.22;;;16.40;82.24
13934;BME280;7039;52.168;9.866;2023-09-19T04:07:32;99781.56;;;16.29;82.71
13934;BME280;7039;52.168;9.866;2023-09-19T04:09:59;99780.44;;;16.22;82.75
13934;BME280;7039;52.168;9.866;2023-09-19T04:12:26;99778.34;;;16.25;82.58
13934;BME280;7039;52.168;9.866;2023-09-19T04:14:52;99784.84;;;16.21;82.76
13934;BME280;7039;52.168;9.866;2023-09-19T04:17:19;99789.09;;;16.34;82.64
13934;BME280;7039;52.168;9.866;2023-09-19T04:19:47;99787.53;;;16.31;82.33
13934;BME280;7039;52.168;9.866;2023-09-19T04:22:13;99789.63;;;16.37;82.22
13934;BME280;7039;52.168;9.866;2023-09-19T04:24:39;99788.38;;;16.32;82.19
13934;BME280;7039;52.168;9.866;2023-09-19T04:27:06;99786.00;;;16.28;81.97
13934;BME280;7039;52.168;9.866;2023-09-19T04:29:35;99788.72;;;16.17;82.31
13934;BME280;7039;52.168;9.866;2023-09-19T04:32:03;99788.72;;;16.17;81.90
13934;BME280;7039;52.168;9.866;2023-09-19T04:34:31;99791.78;;;16.22;81.82
13934;BME280;7039;52.168;9.866;2023-09-19T04:36:58;99793.94;;;16.38;81.06
13934;BME280;7039;52.168;9.866;2023-09-19T04:39:25;99785.81;;;16.20;81.77
13934;BME280;7039;52.168;9.866;2023-09-19T04:41:52;99785.94;;;16.19;81.63
13934;BME280;7039;52.168;9.866;2023-09-19T04:44:19;99793.13;;;16.17;81.40
13934;BME280;7039;52.168;9.866;2023-09-19T04:46:46;99799.16;;;16.28;81.29
13934;BME280;7039;52.168;9.866;2023-09-19T04:49:12;99806.91;;;16.51;80.69
13934;BME280;7039;52.168;9.866;2023-09-19T04:51:39;99800.13;;;16.27;80.68
13934;BME280;7039;52.168;9.866;2023-09-19T04:54:07;99812.19;;;16.30;80.54
13934;BME280;7039;52.168;9.866;2023-09-19T04:56:34;99811.53;;;16.17;80.76
13934;BME280;7039;52.168;9.866;2023-09-19T04:59:00;99817.81;;;16.25;80.86
13934;BME280;7039;52.168;9.866;2023-09-19T05:01:27;99812.19;;;16.09;81.10
13934;BME280;7039;52.168;9.866;2023-09-19T05:03:53;99814.88;;;16.19;80.77
13934;BME280;7039;52.168;9.866;2023-09-19T05:06:20;99830.47;;;16.32;80.41
13934;BME280;7039;52.168;9.866;2023-09-19T05:08:47;99827.03;;;16.31;80.35
13934;BME280;7039;52.168;9.866;2023-09-19T05:11:17;99836.59;;;16.11;80.11
13934;BME280;7039;52.168;9.866;2023-09-19T05:13:44;99838.72;;;16.17;80.12
13934;BME280;7039;52.168;9.866;2023-09-19T05:16:10;99834.72;;;16.23;80.22
13934;BME280;7039;52.168;9.866;2023-09-19T05:18:37;99839.19;;;16.32;80.06
13934;BME280;7039;52.168;9.866;2023-09-19T05:21:03;99832.34;;;16.20;79.41
13934;BME280;7039;52.168;9.866;2023-09-19T05:23:30;99835.75;;;16.32;79.09
13934;BME280;7039;52.168;9.866;2023-09-19T05:25:57;99848.84;;;16.22;78.73
13934;BME280;7039;52.168;9.866;2023-09-19T05:28:26;99848.09;;;16.10;78.33
13934;BME280;7039;52.168;9.866;2023-09-19T05:30:53;99852.69;;;16.18;78.26
13934;BME280;7039;52.168;9.866;2023-09-19T05:33:19;99864.38;;;16.25;77.58
13934;BME280;7039;52.168;9.866;2023-09-19T05:35:47;99873.28;;;16.34;77.43
13934;BME280;7039;52.168;9.866;2023-09-19T05:38:14;99871.44;;;16.24;76.62
13934;BME280;7039;52.168;9.866;2023-09-19T05:40:44;99868.69;;;16.26;76.80
13934;BME280;7039;52.168;9.866;2023-09-19T05:43:11;99880.91;;;16.37;76.88
13934;BME280;7039;52.168;9.866;2023-09-19T05:45:40;99870.34;;;16.27;77.19
13934;BME280;7039;52.168;9.866;2023-09-19T05:48:08;99875.22;;;16.32;77.10
13934;BME280;7039;52.168;9.866;2023-09-19T05:50:35;99878.03;;;16.19;76.60
13934;BME280;7039;52.168;9.866;2023-09-19T05:53:01;99880.03;;;16.26;76.32
13934;BME280;7039;52.168;9.866;2023-09-19T05:55:29;99881.31;;;16.11;76.83
13934;BME280;7039;52.168;9.866;2023-09-19T05:57:55;99894.34;;;16.13;76.66
13934;BME280;7039;52.168;9.866;2023-09-19T06:00:23;99898.06;;;16.31;75.78
13934;BME280;7039;52.168;9.866;2023-09-19T06:02:54;99907.69;;;16.21;76.33
13934;BME280;7039;52.168;9.866;2023-09-19T06:05:22;99917.25;;;16.22;76.50
13934;BME280;7039;52.168;9.866;2023-09-19T06:07:49;99921.88;;;16.29;76.30
13934;BME280;7039;52.168;9.866;2023-09-19T06:10:17;99930.03;;;16.26;76.15
13934;BME280;7039;52.168;9.866;2023-09-19T06:12:46;99927.47;;;16.15;76.40
13934;BME280;7039;52.168;9.866;2023-09-19T06:15:13;99936.84;;;16.29;75.30
13934;BME280;7039;52.168;9.866;2023-09-19T06:17:41;99938.97;;;16.35;75.61
13934;BME280;7039;52.168;9.866;2023-09-19T06:20:10;99937.69;;;16.50;75.18
13934;BME280;7039;52.168;9.866;2023-09-19T06:22:40;99950.13;;;16.48;75.19
13934;BME280;7039;52.168;9.866;2023-09-19T06:25:08;99957.66;;;16.53;75.55
13934;BME280;7039;52.168;9.866;2023-09-19T06:27:37;99948.22;;;16.50;75.15
13934;BME280;7039;52.168;9.866;2023-09-19T06:30:04;99943.56;;;16.22;75.77
13934;BME280;7039;52.168;9.866;2023-09-19T06:32:31;99941.69;;;16.13;76.13
13934;BME280;7039;52.168;9.866;2023-09-19T06:34:58;99942.81;;;15.99;76.60
13934;BME280;7039;52.168;9.866;2023-09-19T06:37:28;99947.03;;;16.22;75.79
13934;BME280;7039;52.168;9.866;2023-09-19T06:39:54;99945.00;;;16.26;75.49
13934;BME280;7039;52.168;9.866;2023-09-19T06:42:21;99939.97;;;16.23;75.30
13934;BME280;7039;52.168;9.866;2023-09-19T06:44:48;99948.13;;;16.20;75.50
13934;BME280;7039;52.168;9.866;2023-09-19T06:47:15;99926.41;;;16.06;75.68
13934;BME280;7039;52.168;9.866;2023-09-19T06:49:42;99930.47;;;16.32;75.69
13934;BME280;7039;52.168;9.866;2023-09-19T06:52:10;99936.28;;;16.46;75.24
13934;BME280;7039;52.168;9.866;2023-09-19T06:54:38;99943.81;;;16.51;75.32
13934;BME280;7039;52.168;9.866;2023-09-19T06:57:05;99935.41;;;16.25;75.42
13934;BME280;7039;52.168;9.866;2023-09-19T06:59:34;99939.59;;;16.48;75.29
13934;BME280;7039;52.168;9.866;2023-09-19T07:02:01;99939.81;;;16.36;75.73
13934;BME280;7039;52.168;9.866;2023-09-19T07:04:28;99934.47;;;16.47;74.39
13934;BME280;7039;52.168;9.866;2023-09-19T07:06:54;99943.09;;;16.49;74.72
13934;BME280;7039;52.168;9.866;2023-09-19T07:09:21;99951.94;;;16.69;74.60
13934;BME280;7039;52.168;9.866;2023-09-19T07:11:49;99952.31;;;16.64;74.38
13934;BME280;7039;52.168;9.866;2023-09-19T07:14:16;99960.53;;;16.50;73.60
13934;BME280;7039;52.168;9.866;2023-09-19T07:16:42;99959.38;;;16.43;73.48
13934;BME280;7039;52.168;9.866;2023-09-19T07:19:10;99965.31;;;16.77;73.39
13934;BME280;7039;52.168;9.866;2023-09-19T07:21:36;99971.66;;;16.75;72.11
13934;BME280;7039;52.168;9.866;2023-09-19T07:24:04;99980.41;;;16.96;73.02
13934;BME280;7039;52.168;9.866;2023-09-19T07:26:31;99971.19;;;17.11;71.86
13934;BME280;7039;52.168;9.866;2023-09-19T07:28:58;99976.50;;;17.21;71.14
13934;BME280;7039;52.168;9.866;2023-09-19T07:31:27;99982.50;;;17.23;70.61
13934;BME280;7039;52.168;9.866;2023-09-19T07:33:54;99988.03;;;17.20;70.06
13934;BME280;7039;52.168;9.866;2023-09-19T07:36:21;99997.38;;;17.03;70.01
13934;BME280;7039;52.168;9.866;2023-09-19T07:38:49;99992.31;;;17.21;70.08
13934;BME280;7039;52.168;9.866;2023-09-19T07:41:15;99990.22;;;17.15;70.38
13934;BME280;7039;52.168;9.866;2023-09-19T07:43:42;100004.03;;;17.28;69.73
13934;BME280;7039;52.168;9.866;2023-09-19T07:46:11;100000.47;;;17.39;69.34
13934;BME280;7039;52.168;9.866;2023-09-19T07:48:37;99991.78;;;17.18;69.33
13934;BME280;7039;52.168;9.866;2023-09-19T07:51:06;100004.34;;;17.35;69.28
13934;BME280;7039;52.168;9.866;2023-09-19T07:53:33;100001.31;;;17.40;69.20
13934;BME280;7039;52.168;9.866;2023-09-19T07:56:05;100018.88;;;17.60;68.85
13934;BME280;7039;52.168;9.866;2023-09-19T07:58:31;100023.00;;;17.53;68.58
13934;BME280;7039;52.168;9.866;2023-09-19T08:01:03;100011.75;;;17.20;68.84
13934;BME280;7039;52.168;9.866;2023-09-19T08:03:31;100013.09;;;17.36;69.08
13934;BME280;7039;52.168;9.866;2023-09-19T08:05:58;100006.59;;;17.19;69.07
13934;BME280;7039;52.168;9.866;2023-09-19T08:08:26;100024.34;;;17.38;69.62
13934;BME280;7039;52.168;9.866;2023-09-19T08:10:53;100003.75;;;17.31;68.44
13934;BME280;7039;52.168;9.866;2023-09-19T08:13:21;100009.31;;;17.28;68.70
13934;BME280;7039;52.168;9.866;2023-09-19T08:15:48;100009.06;;;17.41;68.87
13934;BME280;7039;52.168;9.866;2023-09-19T08:18:16;100014.94;;;17.45;68.58
13934;BME280;7039;52.168;9.866;2023-09-19T08:20:49;100015.13;;;17.32;68.22
13934;BME280;7039;52.168;9.866;2023-09-19T08:23:16;100003.53;;;17.14;68.34
13934;BME280;7039;52.168;9.866;2023-09-19T08:25:43;100008.28;;;17.50;68.69
13934;BME280;7039;52.168;9.866;2023-09-19T08:28:10;100014.81;;;17.46;68.64
13934;BME280;7039;52.168;9.866;2023-09-19T08:30:39;100009.25;;;17.49;68.27
13934;BME280;7039;52.168;9.866;2023-09-19T08:33:06;100016.75;;;17.85;68.17
13934;BME280;7039;52.168;9.866;2023-09-19T08:35:33;100028.16;;;17.85;67.22
13934;BME280;7039;52.168;9.866;2023-09-19T08:38:01;100046.66;;;17.95;66.69
13934;BME280;7039;52.168;9.866;2023-09-19T08:40:29;100039.25;;;17.89;66.45
13934;BME280;7039;52.168;9.866;2023-09-19T08:42:59;100034.16;;;18.07;65.84
13934;BME280;7039;52.168;9.866;2023-09-19T08:45:26;100025.66;;;17.84;65.96
13934;BME280;7039;52.168;9.866;2023-09-19T08:47:56;100031.75;;;17.84;65.79
13934;BME280;7039;52.168;9.866;2023-09-19T08:50:28;100040.56;;;18.04;67.13
13934;BME280;7039;52.168;9.866;2023-09-19T08:52:56;100012.53;;;17.72;65.81
13934;BME280;7039;52.168;9.866;2023-09-19T08:55:28;100026.53;;;18.04;65.67
13934;BME280;7039;52.168;9.866;2023-09-19T08:58:00;100033.63;;;18.23;66.40
13934;BME280;7039;52.168;9.866;2023-09-19T09:00:27;100031.63;;;17.86;63.75
13934;BME280;7039;52.168;9.866;2023-09-19T09:02:55;100034.03;;;18.08;65.22
13934;BME280;7039;52.168;9.866;2023-09-19T09:05:23;100047.97;;;18.59;64.79
13934;BME280;7039;52.168;9.866;2023-09-19T09:07:52;100053.25;;;18.69;62.94
13934;BME280;7039;52.168;9.866;2023-09-19T09:10:20;100050.22;;;18.93;63.10
13934;BME280;7039;52.168;9.866;2023-09-19T09:12:51;100045.75;;;18.74;62.85
13934;BME280;7039;52.168;9.866;2023-09-19T09:15:19;100049.81;;;18.78;63.11
13934;BME280;7039;52.168;9.866;2023-09-19T09:17:47;100057.84;;;18.96;63.10
13934;BME280;7039;52.168;9.866;2023-09-19T09:20:15;100049.94;;;18.86;62.59
13934;BME280;7039;52.168;9.866;2023-09-19T09:22:50;100043.44;;;18.81;62.82
13934;BME280;7039;52.168;9.866;2023-09-19T09:25:17;100062.31;;;18.76;63.07
13934;BME280;7039;52.168;9.866;2023-09-19T09:27:46;100076.06;;;19.09;63.89
13934;BME280;7039;52.168;9.866;2023-09-19T09:30:32;100030.75;;;18.35;63.77
13934;BME280;7039;52.168;9.866;2023-09-19T09:33:08;100049.78;;;18.58;63.79
13934;BME280;7039;52.168;9.866;2023-09-19T09:35:35;100049.81;;;18.49;63.77
13934;BME280;7039;52.168;9.866;2023-09-19T09:38:02;100025.84;;;18.11;63.19
13934;BME280;7039;52.168;9.866;2023-09-19T09:40:46;100057.16;;;18.55;63.89
13934;BME280;7039;52.168;9.866;2023-09-19T09:43:25;100049.78;;;18.58;63.44
13934;BME280;7039;52.168;9.866;2023-09-19T09:46:06;100064.25;;;18.93;63.26
13934;BME280;7039;52.168;9.866;2023-09-19T09:48:36;100061.19;;;18.59;63.75
13934;BME280;7039;52.168;9.866;2023-09-19T09:51:05;100062.72;;;19.01;64.15
13934;BME280;7039;52.168;9.866;2023-09-19T09:53:33;100068.66;;;19.32;64.54
13934;BME280;7039;52.168;9.866;2023-09-19T09:56:01;100075.47;;;19.34;63.56
13934;BME280;7039;52.168;9.866;2023-09-19T09:58:31;100062.56;;;18.73;63.12
13934;BME280;7039;52.168;9.866;2023-09-19T10:00:58;100061.94;;;18.81;63.22
13934;BME280;7039;52.168;9.866;2023-09-19T10:03:36;100073.41;;;19.28;63.75
13934;BME280;7039;52.168;9.866;2023-09-19T10:06:09;100079.50;;;19.38;63.72
13934;BME280;7039;52.168;9.866;2023-09-19T10:09:00;100072.63;;;19.55;62.88
13934;BME280;7039;52.168;9.866;2023-09-19T10:11:39;100067.41;;;19.73;62.09
13934;BME280;7039;52.168;9.866;2023-09-19T10:14:09;100076.59;;;19.79;63.17
13934;BME280;7039;52.168;9.866;2023-09-19T10:16:40;100070.75;;;19.75;62.36
13934;BME280;7039;52.168;9.866;2023-09-19T10:19:08;100057.63;;;19.84;62.56
13934;BME280;7039;52.168;9.866;2023-09-19T10:21:36;100073.22;;;19.87;62.52
13934;BME280;7039;52.168;9.866;2023-09-19T10:24:05;100081.84;;;20.16;62.10
13934;BME280;7039;52.168;9.866;2023-09-19T10:26:36;100080.31;;;20.14;61.23
13934;BME280;7039;52.168;9.866;2023-09-19T10:29:03;100085.13;;;20.28;61.11
13934;BME280;7039;52.168;9.866;2023-09-19T10:31:33;100087.44;;;19.86;61.72
13934;BME280;7039;52.168;9.866;2023-09-19T10:34:03;100077.41;;;19.32;62.18
13934;BME280;7039;52.168;9.866;2023-09-19T10:36:32;100060.50;;;19.63;61.67
13934;BME280;7039;52.168;9.866;2023-09-19T10:39:02;100068.53;;;19.71;61.48
13934;BME280;7039;52.168;9.866;2023-09-19T10:41:32;100070.75;;;19.75;61.62
13934;BME280;7039;52.168;9.866;2023-09-19T10:44:03;100077.19;;;20.00;61.78
13934;BME280;7039;52.168;9.866;2023-09-19T10:46:31;100067.72;;;19.98;61.47
13934;BME280;7039;52.168;9.866;2023-09-19T10:48:58;100076.06;;;20.31;61.08
13934;BME280;7039;52.168;9.866;2023-09-19T10:51:31;100079.09;;;20.54;59.53
13934;BME280;7039;52.168;9.866;2023-09-19T10:54:06;100064.66;;;20.20;60.15
13934;BME280;7039;52.168;9.866;2023-09-19T10:56:38;100067.94;;;20.50;59.53
13934;BME280;7039;52.168;9.866;2023-09-19T10:59:08;100069.97;;;20.20;59.98
13934;BME280;7039;52.168;9.866;2023-09-19T11:01:42;100073.06;;;20.16;59.31
13934;BME280;7039;52.168;9.866;2023-09-19T11:04:26;100077.09;;;20.20;59.52
13934;BME280;7039;52.168;9.866;2023-09-19T11:07:06;100075.19;;;20.30;59.52
13934;BME280;7039;52.168;9.866;2023-09-19T11:09:43;100072.44;;;20.04;59.74
13934;BME280;7039;52.168;9.866;2023-09-19T11:12:11;100078.66;;;19.85;60.08
13934;BME280;7039;52.168;9.866;2023-09-19T11:14:46;100079.38;;;19.87;60.18
13934;BME280;7039;52.168;9.866;2023-09-19T11:17:31;100076.53;;;19.98;60.88
13934;BME280;7039;52.168;9.866;2023-09-19T11:20:19;100075.72;;;19.88;59.74
13934;BME280;7039;52.168;9.866;2023-09-19T11:23:20;100065.97;;;19.89;59.64
13934;BME280;7039;52.168;9.866;2023-09-19T11:25:53;100069.63;;;20.33;59.38
13934;BME280;7039;52.168;9.866;2023-09-19T11:28:31;100057.25;;;20.06;59.41
13934;BME280;7039;52.168;9.866;2023-09-19T11:30:56;100065.25;;;20.42;60.47
13934;BME280;7039;52.168;9.866;2023-09-19T11:33:25;100072.09;;;20.80;59.40
13934;BME280;7039;52.168;9.866;2023-09-19T11:36:02;100070.13;;;20.82;59.30
13934;BME280;7039;52.168;9.866;2023-09-19T11:39:01;100084.31;;;21.43;59.17
13934;BME280;7039;52.168;9.866;2023-09-19T11:41:37;100078.13;;;20.91;57.03
13934;BME280;7039;52.168;9.866;2023-09-19T11:44:33;100071.41;;;20.60;57.56
13934;BME280;7039;52.168;9.866;2023-09-19T11:47:05;100070.34;;;20.71;56.84
13934;BME280;7039;52.168;9.866;2023-09-19T11:49:32;100061.13;;;20.30;58.05
13934;BME280;7039;52.168;9.866;2023-09-19T11:52:00;100060.13;;;20.58;58.32
13934;BME280;7039;52.168;9.866;2023-09-19T11:54:31;100071.38;;;21.22;58.21
13934;BME280;7039;52.168;9.866;2023-09-19T11:56:59;100071.75;;;21.27;57.57
13934;BME280;7039;52.168;9.866;2023-09-19T11:59:27;100067.63;;;21.51;56.79
13934;BME280;7039;52.168;9.866;2023-09-19T12:01:55;100076.97;;;21.63;55.96
13934;BME280;7039;52.168;9.866;2023-09-19T12:04:39;100072.31;;;21.92;56.10
13934;BME280;7039;52.168;9.866;2023-09-19T12:07:09;100077.28;;;21.60;53.56
13934;BME280;7039;52.168;9.866;2023-09-19T12:09:42;100065.81;;;21.34;54.44
13934;BME280;7039;52.168;9.866;2023-09-19T12:12:10;100045.19;;;20.75;54.90
13934;BME280;7039;52.168;9.866;2023-09-19T12:14:38;100048.88;;;21.26;55.63
13934;BME280;7039;52.168;9.866;2023-09-19T12:17:07;100059.53;;;21.61;55.18
13934;BME280;7039;52.168;9.866;2023-09-19T12:19:34;100070.84;;;22.14;53.88
13934;BME280;7039;52.168;9.866;2023-09-19T12:22:01;100068.78;;;21.91;53.36
13934;BME280;7039;52.168;9.866;2023-09-19T12:24:32;100072.34;;;22.08;53.60
13934;BME280;7039;52.168;9.866;2023-09-19T12:27:03;100058.16;;;21.48;53.01
13934;BME280;7039;52.168;9.866;2023-09-19T12:29:42;100049.66;;;21.45;53.45
13934;BME280;7039;52.168;9.866;2023-09-19T12:32:08;100055.22;;;21.60;53.94
13934;BME280;7039;52.168;9.866;2023-09-19T12:34:35;100069.88;;;22.15;53.63
13934;BME280;7039;52.168;9.866;2023-09-19T12:37:08;100066.66;;;22.62;52.60
13934;BME280;7039;52.168;9.866;2023-09-19T12:39:42;100055.34;;;22.35;52.71
13934;BME280;7039;52.168;9.866;2023-09-19T12:42:13;100043.47;;;21.62;52.67
13934;BME280;7039;52.168;9.866;2023-09-19T12:44:41;100050.75;;;21.60;53.38
13934;BME280;7039;52.168;9.866;2023-09-19T12:47:10;100035.41;;;21.20;52.88
13934;BME280;7039;52.168;9.866;2023-09-19T12:50:11;100052.31;;;21.45;52.63
13934;BME280;7039;52.168;9.866;2023-09-19T12:52:45;100053.16;;;21.45;52.68
13934;BME280;7039;52.168;9.866;2023-09-19T12:55:26;100050.94;;;21.67;52.68
13934;BME280;7039;52.168;9.866;2023-09-19T12:57:59;100050.00;;;21.76;52.20
13934;BME280;7039;52.168;9.866;2023-09-19T13:00:34;100049.19;;;21.50;52.73
13934;BME280;7039;52.168;9.866;2023-09-19T13:03:16;100043.38;;;21.46;52.08
13934;BME280;7039;52.168;9.866;2023-09-19T13:05:49;100043.22;;;20.77;53.10
13934;BME280;7039;52.168;9.866;2023-09-19T13:08:18;100030.50;;;20.81;54.09
13934;BME280;7039;52.168;9.866;2023-09-19T13:11:02;100020.34;;;20.76;53.03
13934;BME280;7039;52.168;9.866;2023-09-19T13:13:32;100018.50;;;20.95;54.20
13934;BME280;7039;52.168;9.866;2023-09-19T13:15:58;100025.13;;;21.17;53.21
13934;BME280;7039;52.168;9.866;2023-09-19T13:18:26;100026.03;;;21.34;52.88
13934;BME280;7039;52.168;9.866;2023-09-19T13:21:07;100025.78;;;21.45;53.36